createdAt,value
2022-08-30T00:00:24.882Z,67.93
2022-08-30T00:15:20.744Z,69.39
2022-08-30T00:30:17.081Z,70.09
2022-08-30T00:45:12.493Z,72.94
2022-08-30T01:00:08.596Z,75.46
2022-08-30T01:15:04.340Z,77.54
2022-08-30T01:30:00.180Z,81.36
2022-08-30T01:44:56.335Z,81.63
2022-08-30T01:59:51.962Z,82.69
2022-08-30T02:14:48.005Z,82.38
2022-08-30T02:29:44.468Z,79.77
2022-08-30T02:44:40.787Z,81.32
2022-08-30T02:59:36.502Z,82.96
2022-08-30T03:14:32.417Z,84.6
2022-08-30T03:29:28.672Z,86.8
2022-08-30T03:44:24.734Z,87.32
2022-08-30T03:59:20.781Z,86.62
2022-08-30T04:14:16.964Z,87.52
2022-08-30T04:29:13.212Z,88.13
2022-08-30T04:44:09.256Z,91.53
2022-08-30T04:59:05.296Z,91.29
2022-08-30T05:14:00.986Z,87.45
2022-08-30T05:28:57.565Z,86.23
2022-08-30T05:43:54.156Z,84.9
2022-08-30T05:58:50.871Z,83.37
2022-08-30T06:13:47.084Z,82.86
2022-08-30T06:28:43.520Z,79.73
2022-08-30T06:43:40.118Z,77.15
2022-08-30T06:58:36.758Z,74.16
2022-08-30T07:13:32.769Z,67.64
2022-08-30T07:28:29.263Z,65.77
2022-08-30T07:43:25.993Z,61.72
2022-08-30T07:58:22.802Z,58.1
2022-08-30T08:13:19.579Z,54.97
2022-08-30T08:28:16.406Z,46.76
2022-08-30T08:43:13.445Z,49.48
2022-08-30T08:58:10.561Z,45.23
2022-08-30T09:13:07.811Z,40.57
2022-08-30T09:28:05.270Z,40.1
2022-08-30T09:43:02.852Z,36.95
2022-08-30T09:57:59.995Z,37.19
2022-08-30T10:12:57.370Z,35.37
2022-08-30T10:27:54.481Z,33.43
2022-08-30T10:42:52.155Z,33.06
2022-08-30T10:57:48.875Z,33.55
2022-08-30T11:12:45.581Z,32.62
2022-08-30T11:27:42.877Z,28.95
2022-08-30T11:57:36.429Z,28.69
2022-08-30T12:12:33.269Z,29.35
2022-08-30T12:27:32.494Z,27.33
2022-08-30T12:42:26.942Z,28.14
2022-08-30T12:57:34.788Z,26.39
2022-08-30T13:12:19.124Z,28.72
2022-08-30T13:27:15.361Z,30.17
2022-08-30T13:57:06.378Z,30.78
2022-08-30T14:12:02.769Z,29.96
2022-08-30T14:26:58.287Z,30.18
2022-08-30T14:41:53.996Z,30.37
2022-08-30T14:56:49.704Z,29.87
2022-08-30T15:11:46.834Z,29.57
2022-08-30T15:26:41.464Z,30.49
2022-08-30T15:41:37.506Z,30.22
2022-08-30T15:56:33.404Z,30.41
2022-08-30T16:11:29.395Z,30.99
2022-08-30T16:26:25.755Z,31
2022-08-30T16:41:21.918Z,31.76
2022-08-30T16:56:18.109Z,31.1
2022-08-30T17:11:14.350Z,31.3
2022-08-30T17:26:10.611Z,32.71
2022-08-30T17:41:06.332Z,34.49
2022-08-30T17:56:02.138Z,36.59
2022-08-30T18:10:57.507Z,40.11
2022-08-30T18:25:53.065Z,43.96
2022-08-30T18:40:48.827Z,47.34
2022-08-30T18:55:44.264Z,49.78
2022-08-30T19:10:40.251Z,51.27
2022-08-30T19:25:36.612Z,52.36
2022-08-30T19:40:32.738Z,51.82
2022-08-30T19:55:30.188Z,49.75
2022-08-30T20:10:25.878Z,50.28
2022-08-30T20:25:21.555Z,49.73
2022-08-30T20:40:18.133Z,51.46
2022-08-30T20:55:14.366Z,52.09
2022-08-30T22:09:54.602Z,55.01
2022-08-30T22:24:50.938Z,54.97
2022-08-30T22:39:46.727Z,54.41
2022-08-30T22:54:43.225Z,54.53
2022-08-30T23:09:39.425Z,54.86
2022-08-30T23:24:35.574Z,57.2
2022-08-30T23:39:31.952Z,56.51
2022-08-30T23:54:28.192Z,61.7
